sensor_id;sensor_type;location;lat;lon;timestamp;pressure;altitude;pressure_sealevel;temperature;humidity
80620;BME280;69979;53.682;-2.690;2023-07-31T00:01:40;99909.28;;;16.26;58.48
80620;BME280;69979;53.682;-2.690;2023-07-31T00:04:06;99907.48;;;15.64;61.11
80620;BME280;69979;53.682;-2.690;2023-07-31T00:06:31;99902.89;;;15.47;61.11
80620;BME280;69979;53.682;-2.690;2023-07-31T00:08:57;99903.72;;;15.94;60.69
80620;BME280;69979;53.682;-2.690;2023-07-31T00:11:22;99903.38;;;15.77;60.14
80620;BME280;69979;53.682;-2.690;2023-07-31T00:13:48;99907.93;;;15.76;61.15
80620;BME280;69979;53.682;-2.690;2023-07-31T00:16:13;99908.22;;;15.86;61.17
80620;BME280;69979;53.682;-2.690;2023-07-31T00:18:38;99907.89;;;16.14;59.29
80620;BME280;69979;53.682;-2.690;2023-07-31T00:21:04;99916.77;;;14.12;65.05
80620;BME280;69979;53.682;-2.690;2023-07-31T00:23:29;99910.20;;;14.05;67.25
80620;BME280;69979;53.682;-2.690;2023-07-31T00:25:55;99908.75;;;15.47;63.32
80620;BME280;69979;53.682;-2.690;2023-07-31T00:28:20;99899.28;;;15.98;61.62
80620;BME280;69979;53.682;-2.690;2023-07-31T00:30:45;99897.73;;;16.77;59.39
80620;BME280;69979;53.682;-2.690;2023-07-31T00:33:11;99893.31;;;17.07;58.16
80620;BME280;69979;53.682;-2.690;2023-07-31T00:35:36;99891.17;;;16.87;58.42
80620;BME280;69979;53.682;-2.690;2023-07-31T00:38:02;99890.06;;;17.36;57.50
80620;BME280;69979;53.682;-2.690;2023-07-31T00:40:27;99885.79;;;17.84;56.07
80620;BME280;69979;53.682;-2.690;2023-07-31T00:42:53;99880.73;;;17.59;55.78
80620;BME280;69979;53.682;-2.690;2023-07-31T00:45:18;99878.64;;;18.20;54.93
80620;BME280;69979;53.682;-2.690;2023-07-31T00:47:43;99873.28;;;17.77;54.85
80620;BME280;69979;53.682;-2.690;2023-07-31T00:50:09;99872.06;;;18.43;53.49
80620;BME280;69979;53.682;-2.690;2023-07-31T00:52:35;99870.61;;;18.35;54.16
80620;BME280;69979;53.682;-2.690;2023-07-31T00:55:00;99871.45;;;18.48;53.29
80620;BME280;69979;53.682;-2.690;2023-07-31T00:57:25;99862.43;;;18.51;54.15
80620;BME280;69979;53.682;-2.690;2023-07-31T00:59:50;99864.29;;;18.41;53.75
80620;BME280;69979;53.682;-2.690;2023-07-31T01:02:16;99862.08;;;18.65;53.19
80620;BME280;69979;53.682;-2.690;2023-07-31T01:04:43;99861.61;;;18.95;53.22
80620;BME280;69979;53.682;-2.690;2023-07-31T01:07:11;99864.84;;;19.01;52.70
80620;BME280;69979;53.682;-2.690;2023-07-31T01:09:37;99860.65;;;18.70;52.59
80620;BME280;69979;53.682;-2.690;2023-07-31T01:12:01;99860.81;;;19.04;51.71
80620;BME280;69979;53.682;-2.690;2023-07-31T01:14:23;99856.79;;;19.38;51.44
80620;BME280;69979;53.682;-2.690;2023-07-31T01:16:48;99858.15;;;19.54;50.86
80620;BME280;69979;53.682;-2.690;2023-07-31T01:19:15;99859.64;;;19.40;50.87
80620;BME280;69979;53.682;-2.690;2023-07-31T01:21:54;99860.78;;;19.24;51.13
80620;BME280;69979;53.682;-2.690;2023-07-31T01:24:19;99859.73;;;19.61;50.97
80620;BME280;69979;53.682;-2.690;2023-07-31T01:26:33;99854.14;;;19.54;50.57
80620;BME280;69979;53.682;-2.690;2023-07-31T01:29:01;99855.02;;;19.46;50.77
80620;BME280;69979;53.682;-2.690;2023-07-31T01:31:24;99853.97;;;19.43;50.58
80620;BME280;69979;53.682;-2.690;2023-07-31T01:33:46;99851.46;;;19.72;50.69
80620;BME280;69979;53.682;-2.690;2023-07-31T01:36:11;99852.82;;;19.60;50.62
80620;BME280;69979;53.682;-2.690;2023-07-31T01:38:36;99854.31;;;19.89;50.43
80620;BME280;69979;53.682;-2.690;2023-07-31T01:41:02;99853.57;;;18.87;52.34
80620;BME280;69979;53.682;-2.690;2023-07-31T01:43:27;99851.60;;;18.84;52.20
80620;BME280;69979;53.682;-2.690;2023-07-31T01:45:53;99848.64;;;18.81;52.58
80620;BME280;69979;53.682;-2.690;2023-07-31T01:48:18;99849.97;;;18.97;52.48
80620;BME280;69979;53.682;-2.690;2023-07-31T01:50:43;99849.10;;;18.96;52.49
80620;BME280;69979;53.682;-2.690;2023-07-31T01:53:09;99842.26;;;18.51;54.14
80620;BME280;69979;53.682;-2.690;2023-07-31T01:55:34;99842.35;;;18.58;54.20
80620;BME280;69979;53.682;-2.690;2023-07-31T01:57:59;99837.42;;;17.94;55.03
80620;BME280;69979;53.682;-2.690;2023-07-31T02:00:25;99834.43;;;18.09;55.25
80620;BME280;69979;53.682;-2.690;2023-07-31T02:02:50;99830.42;;;18.31;55.09
80620;BME280;69979;53.682;-2.690;2023-07-31T02:05:16;99833.41;;;17.49;56.72
80620;BME280;69979;53.682;-2.690;2023-07-31T02:07:41;99833.80;;;17.45;57.76
80620;BME280;69979;53.682;-2.690;2023-07-31T02:10:07;99834.32;;;17.36;58.19
80620;BME280;69979;53.682;-2.690;2023-07-31T02:12:32;99821.98;;;16.67;60.70
80620;BME280;69979;53.682;-2.690;2023-07-31T02:14:58;99823.21;;;16.34;60.77
80620;BME280;69979;53.682;-2.690;2023-07-31T02:17:23;99818.41;;;17.42;58.41
80620;BME280;69979;53.682;-2.690;2023-07-31T02:19:48;99817.63;;;17.90;56.49
80620;BME280;69979;53.682;-2.690;2023-07-31T02:22:13;99825.44;;;16.95;59.22
80620;BME280;69979;53.682;-2.690;2023-07-31T02:24:39;99823.03;;;17.04;58.83
80620;BME280;69979;53.682;-2.690;2023-07-31T02:27:05;99820.05;;;16.51;60.39
80620;BME280;69979;53.682;-2.690;2023-07-31T02:29:30;99819.85;;;14.79;65.36
80620;BME280;69979;53.682;-2.690;2023-07-31T02:31:55;99818.85;;;15.03;66.05
80620;BME280;69979;53.682;-2.690;2023-07-31T02:34:20;99814.09;;;15.51;65.61
80620;BME280;69979;53.682;-2.690;2023-07-31T02:36:46;99812.15;;;15.31;65.59
80620;BME280;69979;53.682;-2.690;2023-07-31T02:39:11;99805.81;;;14.96;66.60
80620;BME280;69979;53.682;-2.690;2023-07-31T02:41:37;99803.10;;;15.34;65.55
80620;BME280;69979;53.682;-2.690;2023-07-31T02:44:03;99805.94;;;14.65;66.54
80620;BME280;69979;53.682;-2.690;2023-07-31T02:46:28;99803.48;;;14.86;68.23
80620;BME280;69979;53.682;-2.690;2023-07-31T02:48:53;99808.03;;;14.89;67.32
80620;BME280;69979;53.682;-2.690;2023-07-31T02:51:19;99805.25;;;15.56;64.56
80620;BME280;69979;53.682;-2.690;2023-07-31T02:53:44;99804.94;;;14.14;69.22
80620;BME280;69979;53.682;-2.690;2023-07-31T02:56:09;99801.36;;;14.54;68.69
80620;BME280;69979;53.682;-2.690;2023-07-31T02:58:35;99796.71;;;14.71;68.27
80620;BME280;69979;53.682;-2.690;2023-07-31T03:01:00;99799.50;;;14.09;70.16
80620;BME280;69979;53.682;-2.690;2023-07-31T03:03:26;99803.97;;;14.47;68.73
80620;BME280;69979;53.682;-2.690;2023-07-31T03:05:51;99802.42;;;15.04;67.28
80620;BME280;69979;53.682;-2.690;2023-07-31T03:08:17;99804.07;;;14.51;68.91
80620;BME280;69979;53.682;-2.690;2023-07-31T03:10:42;99804.80;;;13.96;70.04
80620;BME280;69979;53.682;-2.690;2023-07-31T03:13:08;99802.92;;;14.62;68.61
80620;BME280;69979;53.682;-2.690;2023-07-31T03:15:33;99802.49;;;13.89;71.74
80620;BME280;69979;53.682;-2.690;2023-07-31T03:17:58;99797.64;;;13.71;72.15
80620;BME280;69979;53.682;-2.690;2023-07-31T03:20:24;99800.02;;;14.59;68.93
80620;BME280;69979;53.682;-2.690;2023-07-31T03:22:49;99799.62;;;15.08;67.71
80620;BME280;69979;53.682;-2.690;2023-07-31T03:25:15;99797.27;;;13.87;70.02
80620;BME280;69979;53.682;-2.690;2023-07-31T03:27:40;99804.11;;;14.50;69.66
80620;BME280;69979;53.682;-2.690;2023-07-31T03:30:07;99800.68;;;14.16;70.78
80620;BME280;69979;53.682;-2.690;2023-07-31T03:32:31;99807.51;;;14.35;70.26
80620;BME280;69979;53.682;-2.690;2023-07-31T03:34:58;99808.49;;;14.88;68.85
80620;BME280;69979;53.682;-2.690;2023-07-31T03:37:22;99809.36;;;13.35;73.19
80620;BME280;69979;53.682;-2.690;2023-07-31T03:39:47;99804.11;;;13.80;72.11
80620;BME280;69979;53.682;-2.690;2023-07-31T03:42:13;99805.45;;;14.14;71.33
80620;BME280;69979;53.682;-2.690;2023-07-31T03:44:38;99801.19;;;14.44;69.05
80620;BME280;69979;53.682;-2.690;2023-07-31T03:47:04;99797.13;;;14.58;68.85
80620;BME280;69979;53.682;-2.690;2023-07-31T03:49:29;99796.25;;;14.89;67.83
80620;BME280;69979;53.682;-2.690;2023-07-31T03:51:55;99793.42;;;15.53;66.10
80620;BME280;69979;53.682;-2.690;2023-07-31T03:54:20;99792.75;;;15.11;65.92
80620;BME280;69979;53.682;-2.690;2023-07-31T03:56:45;99792.24;;;15.73;65.04
80620;BME280;69979;53.682;-2.690;2023-07-31T03:59:11;99789.03;;;16.24;63.72
80620;BME280;69979;53.682;-2.690;2023-07-31T04:01:36;99789.22;;;15.48;64.85
80620;BME280;69979;53.682;-2.690;2023-07-31T04:04:02;99791.91;;;15.93;64.03
80620;BME280;69979;53.682;-2.690;2023-07-31T04:06:27;99791.62;;;15.24;66.97
80620;BME280;69979;53.682;-2.690;2023-07-31T04:08:53;99788.47;;;16.02;63.94
80620;BME280;69979;53.682;-2.690;2023-07-31T04:11:18;99794.04;;;15.75;64.15
80620;BME280;69979;53.682;-2.690;2023-07-31T04:13:43;99800.14;;;14.37;68.68
80620;BME280;69979;53.682;-2.690;2023-07-31T04:16:09;99800.37;;;13.70;71.50
80620;BME280;69979;53.682;-2.690;2023-07-31T04:18:34;99797.18;;;14.63;68.42
80620;BME280;69979;53.682;-2.690;2023-07-31T04:20:59;99797.13;;;15.42;66.36
80620;BME280;69979;53.682;-2.690;2023-07-31T04:23:25;99801.52;;;15.78;65.13
80620;BME280;69979;53.682;-2.690;2023-07-31T04:25:50;99803.55;;;15.02;65.92
80620;BME280;69979;53.682;-2.690;2023-07-31T04:28:16;99808.21;;;14.89;67.53
80620;BME280;69979;53.682;-2.690;2023-07-31T04:30:41;99800.57;;;13.96;69.44
80620;BME280;69979;53.682;-2.690;2023-07-31T04:33:07;99798.58;;;15.64;64.75
80620;BME280;69979;53.682;-2.690;2023-07-31T04:35:32;99804.92;;;14.48;68.23
80620;BME280;69979;53.682;-2.690;2023-07-31T04:37:58;99808.15;;;14.88;67.14
80620;BME280;69979;53.682;-2.690;2023-07-31T04:40:24;99809.34;;;15.23;65.83
80620;BME280;69979;53.682;-2.690;2023-07-31T04:42:48;99809.54;;;15.82;64.35
80620;BME280;69979;53.682;-2.690;2023-07-31T04:45:14;99806.45;;;14.49;68.06
80620;BME280;69979;53.682;-2.690;2023-07-31T04:47:39;99797.58;;;14.38;68.73
80620;BME280;69979;53.682;-2.690;2023-07-31T04:50:05;99807.35;;;14.24;69.67
80620;BME280;69979;53.682;-2.690;2023-07-31T04:52:29;99808.33;;;13.69;71.87
80620;BME280;69979;53.682;-2.690;2023-07-31T04:54:54;99806.42;;;13.92;70.28
80620;BME280;69979;53.682;-2.690;2023-07-31T04:57:20;99809.70;;;14.16;69.81
80620;BME280;69979;53.682;-2.690;2023-07-31T04:59:46;99806.85;;;13.60;71.98
80620;BME280;69979;53.682;-2.690;2023-07-31T05:02:12;99806.78;;;13.91;69.47
80620;BME280;69979;53.682;-2.690;2023-07-31T05:04:36;99805.43;;;14.35;68.70
80620;BME280;69979;53.682;-2.690;2023-07-31T05:07:02;99807.60;;;14.09;69.45
80620;BME280;69979;53.682;-2.690;2023-07-31T05:09:27;99804.46;;;14.03;69.35
80620;BME280;69979;53.682;-2.690;2023-07-31T05:11:52;99802.46;;;14.41;67.92
80620;BME280;69979;53.682;-2.690;2023-07-31T05:14:18;99797.27;;;14.52;66.72
80620;BME280;69979;53.682;-2.690;2023-07-31T05:16:43;99796.99;;;13.88;68.42
80620;BME280;69979;53.682;-2.690;2023-07-31T05:19:08;99796.84;;;14.79;65.47
80620;BME280;69979;53.682;-2.690;2023-07-31T05:21:34;99794.17;;;14.92;66.03
80620;BME280;69979;53.682;-2.690;2023-07-31T05:23:59;99789.79;;;14.80;65.93
80620;BME280;69979;53.682;-2.690;2023-07-31T05:26:25;99788.00;;;15.71;61.88
80620;BME280;69979;53.682;-2.690;2023-07-31T05:28:50;99789.06;;;14.85;63.78
80620;BME280;69979;53.682;-2.690;2023-07-31T05:31:16;99787.64;;;14.78;64.50
80620;BME280;69979;53.682;-2.690;2023-07-31T05:33:41;99791.07;;;14.54;65.15
80620;BME280;69979;53.682;-2.690;2023-07-31T05:36:06;99797.06;;;14.35;64.91
80620;BME280;69979;53.682;-2.690;2023-07-31T05:38:32;99790.85;;;14.02;66.58
80620;BME280;69979;53.682;-2.690;2023-07-31T05:40:58;99792.79;;;14.58;64.89
80620;BME280;69979;53.682;-2.690;2023-07-31T05:43:23;99786.21;;;14.56;65.06
80620;BME280;69979;53.682;-2.690;2023-07-31T05:45:48;99776.92;;;14.44;65.62
80620;BME280;69979;53.682;-2.690;2023-07-31T05:48:14;99770.61;;;13.54;68.54
80620;BME280;69979;53.682;-2.690;2023-07-31T05:50:39;99769.18;;;13.08;70.93
80620;BME280;69979;53.682;-2.690;2023-07-31T05:53:05;99774.27;;;13.35;69.36
80620;BME280;69979;53.682;-2.690;2023-07-31T05:55:30;99783.57;;;13.82;69.07
80620;BME280;69979;53.682;-2.690;2023-07-31T05:57:55;99783.16;;;13.50;69.94
80620;BME280;69979;53.682;-2.690;2023-07-31T06:00:21;99791.41;;;13.82;69.56
80620;BME280;69979;53.682;-2.690;2023-07-31T06:02:47;99792.08;;;13.13;72.39
80620;BME280;69979;53.682;-2.690;2023-07-31T06:05:11;99788.06;;;13.94;69.55
80620;BME280;69979;53.682;-2.690;2023-07-31T06:07:37;99786.30;;;14.23;68.03
80620;BME280;69979;53.682;-2.690;2023-07-31T06:10:03;99788.58;;;13.49;69.20
80620;BME280;69979;53.682;-2.690;2023-07-31T06:12:27;99790.51;;;14.03;68.66
80620;BME280;69979;53.682;-2.690;2023-07-31T06:14:53;99791.14;;;13.89;69.14
80620;BME280;69979;53.682;-2.690;2023-07-31T06:17:18;99788.75;;;13.95;68.67
80620;BME280;69979;53.682;-2.690;2023-07-31T06:19:44;99788.75;;;13.65;69.86
80620;BME280;69979;53.682;-2.690;2023-07-31T06:22:09;99783.09;;;13.01;72.32
80620;BME280;69979;53.682;-2.690;2023-07-31T06:24:34;99782.43;;;13.37;70.99
80620;BME280;69979;53.682;-2.690;2023-07-31T06:27:00;99787.37;;;12.73;72.70
80620;BME280;69979;53.682;-2.690;2023-07-31T06:29:25;99777.58;;;12.93;72.36
80620;BME280;69979;53.682;-2.690;2023-07-31T06:31:51;99778.34;;;13.26;72.26
80620;BME280;69979;53.682;-2.690;2023-07-31T06:34:16;99784.64;;;12.85;73.95
80620;BME280;69979;53.682;-2.690;2023-07-31T06:36:41;99777.25;;;13.77;70.97
80620;BME280;69979;53.682;-2.690;2023-07-31T06:39:07;99788.70;;;13.44;71.10
80620;BME280;69979;53.682;-2.690;2023-07-31T06:41:32;99798.93;;;12.98;72.24
80620;BME280;69979;53.682;-2.690;2023-07-31T06:43:58;99798.49;;;13.25;71.75
80620;BME280;69979;53.682;-2.690;2023-07-31T06:46:23;99799.62;;;13.72;70.44
80620;BME280;69979;53.682;-2.690;2023-07-31T06:48:49;99801.82;;;12.44;74.09
80620;BME280;69979;53.682;-2.690;2023-07-31T06:51:14;99798.15;;;13.27;71.02
80620;BME280;69979;53.682;-2.690;2023-07-31T06:53:39;99800.66;;;12.88;73.39
80620;BME280;69979;53.682;-2.690;2023-07-31T06:56:05;99797.37;;;12.77;73.00
80620;BME280;69979;53.682;-2.690;2023-07-31T06:58:30;99792.75;;;13.63;71.65
80620;BME280;69979;53.682;-2.690;2023-07-31T07:00:55;99801.91;;;13.16;72.05
80620;BME280;69979;53.682;-2.690;2023-07-31T07:03:21;99791.49;;;13.64;71.52
80620;BME280;69979;53.682;-2.690;2023-07-31T07:05:46;99796.04;;;12.50;73.97
80620;BME280;69979;53.682;-2.690;2023-07-31T07:08:12;99788.09;;;13.32;71.99
80620;BME280;69979;53.682;-2.690;2023-07-31T07:10:37;99787.08;;;13.74;70.50
80620;BME280;69979;53.682;-2.690;2023-07-31T07:13:03;99792.15;;;13.92;69.24
80620;BME280;69979;53.682;-2.690;2023-07-31T07:15:28;99798.42;;;12.72;73.66
80620;BME280;69979;53.682;-2.690;2023-07-31T07:17:53;99791.40;;;13.70;69.30
80620;BME280;69979;53.682;-2.690;2023-07-31T07:20:19;99778.79;;;13.83;68.84
80620;BME280;69979;53.682;-2.690;2023-07-31T07:22:44;99786.75;;;14.38;67.66
80620;BME280;69979;53.682;-2.690;2023-07-31T07:25:10;99787.69;;;12.54;72.24
80620;BME280;69979;53.682;-2.690;2023-07-31T07:27:35;99788.55;;;12.92;72.04
80620;BME280;69979;53.682;-2.690;2023-07-31T07:30:01;99791.30;;;12.42;75.50
80620;BME280;69979;53.682;-2.690;2023-07-31T07:32:26;99788.68;;;12.50;75.10
80620;BME280;69979;53.682;-2.690;2023-07-31T07:34:51;99801.97;;;12.84;73.53
80620;BME280;69979;53.682;-2.690;2023-07-31T07:37:17;99810.52;;;12.60;75.28
80620;BME280;69979;53.682;-2.690;2023-07-31T07:39:42;99817.77;;;12.28;75.77
80620;BME280;69979;53.682;-2.690;2023-07-31T07:42:07;99808.33;;;13.44;71.90
80620;BME280;69979;53.682;-2.690;2023-07-31T07:44:33;99807.74;;;13.33;72.54
80620;BME280;69979;53.682;-2.690;2023-07-31T07:46:58;99801.34;;;13.87;69.34
80620;BME280;69979;53.682;-2.690;2023-07-31T07:49:24;99793.85;;;12.93;71.08
80620;BME280;69979;53.682;-2.690;2023-07-31T07:51:49;99794.89;;;13.93;70.04
80620;BME280;69979;53.682;-2.690;2023-07-31T07:54:15;99801.21;;;13.23;72.84
80620;BME280;69979;53.682;-2.690;2023-07-31T07:56:40;99806.38;;;12.96;72.12
80620;BME280;69979;53.682;-2.690;2023-07-31T07:59:05;99802.36;;;12.38;75.75
80620;BME280;69979;53.682;-2.690;2023-07-31T08:01:31;99807.74;;;12.96;72.75
80620;BME280;69979;53.682;-2.690;2023-07-31T08:03:56;99799.85;;;14.04;69.70
80620;BME280;69979;53.682;-2.690;2023-07-31T08:06:22;99791.53;;;14.47;66.41
80620;BME280;69979;53.682;-2.690;2023-07-31T08:08:47;99787.59;;;13.73;68.59
80620;BME280;69979;53.682;-2.690;2023-07-31T08:11:12;99785.33;;;12.90;70.46
80620;BME280;69979;53.682;-2.690;2023-07-31T08:13:38;99789.27;;;13.03;71.21
80620;BME280;69979;53.682;-2.690;2023-07-31T08:16:03;99788.62;;;12.41;71.83
80620;BME280;69979;53.682;-2.690;2023-07-31T08:18:28;99785.77;;;13.67;68.64
80620;BME280;69979;53.682;-2.690;2023-07-31T08:20:54;99781.31;;;14.13;67.84
80620;BME280;69979;53.682;-2.690;2023-07-31T08:23:19;99780.59;;;14.15;67.31
80620;BME280;69979;53.682;-2.690;2023-07-31T08:25:45;99783.51;;;13.96;67.52
80620;BME280;69979;53.682;-2.690;2023-07-31T08:28:10;99783.66;;;13.08;70.36
80620;BME280;69979;53.682;-2.690;2023-07-31T08:30:35;99786.22;;;13.58;68.02
80620;BME280;69979;53.682;-2.690;2023-07-31T08:33:01;99784.26;;;13.68;68.30
80620;BME280;69979;53.682;-2.690;2023-07-31T08:35:27;99788.80;;;14.47;66.46
80620;BME280;69979;53.682;-2.690;2023-07-31T08:37:52;99785.31;;;14.72;64.99
80620;BME280;69979;53.682;-2.690;2023-07-31T08:40:17;99769.84;;;14.19;67.22
80620;BME280;69979;53.682;-2.690;2023-07-31T08:42:44;99750.36;;;14.69;65.28
80620;BME280;69979;53.682;-2.690;2023-07-31T08:45:08;99750.68;;;14.59;64.34
80620;BME280;69979;53.682;-2.690;2023-07-31T08:47:33;99748.09;;;14.59;65.04
80620;BME280;69979;53.682;-2.690;2023-07-31T08:49:59;99749.67;;;14.85;64.53
80620;BME280;69979;53.682;-2.690;2023-07-31T08:52:24;99745.28;;;14.08;66.54
80620;BME280;69979;53.682;-2.690;2023-07-31T08:54:50;99748.81;;;13.85;68.05
80620;BME280;69979;53.682;-2.690;2023-07-31T08:57:16;99750.02;;;13.73;68.74
80620;BME280;69979;53.682;-2.690;2023-07-31T08:59:40;99751.96;;;14.70;66.62
80620;BME280;69979;53.682;-2.690;2023-07-31T09:02:08;99750.29;;;13.66;67.78
80620;BME280;69979;53.682;-2.690;2023-07-31T09:04:32;99754.71;;;14.23;67.01
80620;BME280;69979;53.682;-2.690;2023-07-31T09:07:00;99753.45;;;13.57;68.68
80620;BME280;69979;53.682;-2.690;2023-07-31T09:09:22;99748.46;;;13.05;69.10
80620;BME280;69979;53.682;-2.690;2023-07-31T09:11:48;99751.49;;;13.09;70.72
80620;BME280;69979;53.682;-2.690;2023-07-31T09:14:14;99754.68;;;14.06;67.45
80620;BME280;69979;53.682;-2.690;2023-07-31T09:19:04;99762.43;;;13.18;70.80
80620;BME280;69979;53.682;-2.690;2023-07-31T09:21:29;99766.42;;;13.37;69.87
80620;BME280;69979;53.682;-2.690;2023-07-31T09:23:54;99768.06;;;13.52;69.95
80620;BME280;69979;53.682;-2.690;2023-07-31T09:26:30;99766.82;;;13.61;68.60
80620;BME280;69979;53.682;-2.690;2023-07-31T09:28:45;99769.64;;;13.48;69.19
80620;BME280;69979;53.682;-2.690;2023-07-31T09:31:11;99786.95;;;12.62;73.08
80620;BME280;69979;53.682;-2.690;2023-07-31T09:36:05;99788.67;;;13.06;70.63
80620;BME280;69979;53.682;-2.690;2023-07-31T09:38:27;99761.34;;;13.19;71.18
80620;BME280;69979;53.682;-2.690;2023-07-31T09:40:52;99756.11;;;13.44;69.81
80620;BME280;69979;53.682;-2.690;2023-07-31T09:43:19;99750.95;;;13.86;68.70
80620;BME280;69979;53.682;-2.690;2023-07-31T09:45:44;99758.92;;;13.68;68.75
80620;BME280;69979;53.682;-2.690;2023-07-31T09:48:10;99748.11;;;13.46;69.69
80620;BME280;69979;53.682;-2.690;2023-07-31T09:50:36;99752.25;;;13.71;69.43
80620;BME280;69979;53.682;-2.690;2023-07-31T09:53:00;99761.55;;;12.61;72.63
80620;BME280;69979;53.682;-2.690;2023-07-31T09:55:25;99759.85;;;13.41;70.34
80620;BME280;69979;53.682;-2.690;2023-07-31T09:57:50;99752.37;;;13.30;71.49
80620;BME280;69979;53.682;-2.690;2023-07-31T10:00:17;99749.30;;;13.27;70.75
80620;BME280;69979;53.682;-2.690;2023-07-31T10:02:42;99749.22;;;13.38;70.32
80620;BME280;69979;53.682;-2.690;2023-07-31T10:05:07;99755.84;;;12.96;71.01
80620;BME280;69979;53.682;-2.690;2023-07-31T10:07:37;99758.43;;;13.56;70.76
80620;BME280;69979;53.682;-2.690;2023-07-31T10:10:00;99762.33;;;14.12;68.26
80620;BME280;69979;53.682;-2.690;2023-07-31T10:12:26;99765.40;;;13.76;69.44
80620;BME280;69979;53.682;-2.690;2023-07-31T10:14:48;99767.99;;;13.74;69.54
80620;BME280;69979;53.682;-2.690;2023-07-31T10:17:14;99779.96;;;12.85;71.90
80620;BME280;69979;53.682;-2.690;2023-07-31T10:19:40;99780.20;;;12.89;72.60
80620;BME280;69979;53.682;-2.690;2023-07-31T10:22:05;99795.55;;;13.38;69.25
80620;BME280;69979;53.682;-2.690;2023-07-31T10:24:30;99776.64;;;13.87;68.90
80620;BME280;69979;53.682;-2.690;2023-07-31T10:26:58;99766.90;;;13.87;68.81
80620;BME280;69979;53.682;-2.690;2023-07-31T10:29:22;99758.91;;;13.43;69.94
80620;BME280;69979;53.682;-2.690;2023-07-31T10:31:47;99757.62;;;13.40;69.88
80620;BME280;69979;53.682;-2.690;2023-07-31T10:34:12;99753.03;;;14.21;67.88
80620;BME280;69979;53.682;-2.690;2023-07-31T10:36:37;99743.60;;;13.73;68.96
80620;BME280;69979;53.682;-2.690;2023-07-31T10:39:04;99730.00;;;14.32;67.15
80620;BME280;69979;53.682;-2.690;2023-07-31T10:41:29;99726.32;;;13.71;68.01
80620;BME280;69979;53.682;-2.690;2023-07-31T10:43:55;99726.72;;;14.19;66.51
80620;BME280;69979;53.682;-2.690;2023-07-31T10:46:19;99733.63;;;14.77;66.07
80620;BME280;69979;53.682;-2.690;2023-07-31T10:48:44;99741.06;;;14.64;66.39
80620;BME280;69979;53.682;-2.690;2023-07-31T10:51:12;99741.79;;;14.80;65.32
80620;BME280;69979;53.682;-2.690;2023-07-31T10:53:36;99740.61;;;14.09;66.36
80620;BME280;69979;53.682;-2.690;2023-07-31T10:56:02;99744.05;;;14.21;67.53
80620;BME280;69979;53.682;-2.690;2023-07-31T10:58:26;99738.24;;;14.48;65.77
80620;BME280;69979;53.682;-2.690;2023-07-31T11:00:56;99723.93;;;14.09;66.71
80620;BME280;69979;53.682;-2.690;2023-07-31T11:03:18;99711.06;;;14.83;65.64
80620;BME280;69979;53.682;-2.690;2023-07-31T11:05:48;99710.73;;;14.37;64.94
80620;BME280;69979;53.682;-2.690;2023-07-31T11:08:12;99711.51;;;14.45;65.17
80620;BME280;69979;53.682;-2.690;2023-07-31T11:10:33;99710.38;;;14.13;66.38
80620;BME280;69979;53.682;-2.690;2023-07-31T11:12:59;99721.15;;;12.83;68.77
80620;BME280;69979;53.682;-2.690;2023-07-31T11:15:27;99735.94;;;12.85;69.25
80620;BME280;69979;53.682;-2.690;2023-07-31T11:17:49;99730.08;;;12.96;69.58
80620;BME280;69979;53.682;-2.690;2023-07-31T11:20:15;99737.12;;;13.02;67.88
80620;BME280;69979;53.682;-2.690;2023-07-31T11:22:41;99747.51;;;13.22;67.93
80620;BME280;69979;53.682;-2.690;2023-07-31T11:25:07;99747.46;;;12.99;69.15
80620;BME280;69979;53.682;-2.690;2023-07-31T11:27:38;99742.35;;;13.80;65.19
80620;BME280;69979;53.682;-2.690;2023-07-31T11:30:00;99735.33;;;13.42;66.00
80620;BME280;69979;53.682;-2.690;2023-07-31T11:32:23;99745.05;;;12.78;68.85
80620;BME280;69979;53.682;-2.690;2023-07-31T11:34:53;99745.72;;;13.03;68.98
80620;BME280;69979;53.682;-2.690;2023-07-31T11:37:13;99738.12;;;13.15;67.67
80620;BME280;69979;53.682;-2.690;2023-07-31T11:39:38;99731.96;;;13.41;66.17
80620;BME280;69979;53.682;-2.690;2023-07-31T11:42:04;99738.04;;;13.34;65.67
80620;BME280;69979;53.682;-2.690;2023-07-31T11:44:38;99730.67;;;14.09;64.64
80620;BME280;69979;53.682;-2.690;2023-07-31T11:46:57;99723.65;;;13.83;65.79
80620;BME280;69979;53.682;-2.690;2023-07-31T11:49:21;99720.67;;;14.24;64.06
80620;BME280;69979;53.682;-2.690;2023-07-31T11:51:45;99727.80;;;15.03;62.19
80620;BME280;69979;53.682;-2.690;2023-07-31T11:54:11;99725.11;;;14.61;61.91
80620;BME280;69979;53.682;-2.690;2023-07-31T11:56:36;99730.52;;;13.97;62.83
80620;BME280;69979;53.682;-2.690;2023-07-31T11:59:02;99729.46;;;13.91;64.27
80620;BME280;69979;53.682;-2.690;2023-07-31T12:01:27;99720.58;;;13.44;65.94
80620;BME280;69979;53.682;-2.690;2023-07-31T12:03:53;99712.71;;;14.43;62.87
80620;BME280;69979;53.682;-2.690;2023-07-31T12:06:18;99720.78;;;12.62;68.25
80620;BME280;69979;53.682;-2.690;2023-07-31T12:08:43;99726.38;;;13.78;65.63
80620;BME280;69979;53.682;-2.690;2023-07-31T12:11:09;99721.63;;;14.33;64.28
80620;BME280;69979;53.682;-2.690;2023-07-31T12:13:34;99726.34;;;14.40;63.11
80620;BME280;69979;53.682;-2.690;2023-07-31T12:16:01;99714.76;;;14.53;61.46
80620;BME280;69979;53.682;-2.690;2023-07-31T12:18:26;99711.44;;;14.72;59.82
80620;BME280;69979;53.682;-2.690;2023-07-31T12:20:55;99707.35;;;14.61;61.67
80620;BME280;69979;53.682;-2.690;2023-07-31T12:23:17;99705.56;;;13.33;63.93
80620;BME280;69979;53.682;-2.690;2023-07-31T12:25:41;99703.35;;;14.55;61.25
80620;BME280;69979;53.682;-2.690;2023-07-31T12:28:07;99700.09;;;14.31;61.80
80620;BME280;69979;53.682;-2.690;2023-07-31T12:30:33;99702.87;;;15.07;59.47
80620;BME280;69979;53.682;-2.690;2023-07-31T12:32:58;99701.62;;;14.48;60.62
80620;BME280;69979;53.682;-2.690;2023-07-31T12:35:23;99703.33;;;13.64;63.11
80620;BME280;69979;53.682;-2.690;2023-07-31T12:37:48;99718.18;;;13.98;63.85
80620;BME280;69979;53.682;-2.690;2023-07-31T12:40:13;99696.61;;;13.48;65.40
80620;BME280;69979;53.682;-2.690;2023-07-31T12:42:38;99693.88;;;13.86;63.53
80620;BME280;69979;53.682;-2.690;2023-07-31T12:45:05;99700.00;;;13.15;65.61